createdAt,value
2023-10-28T00:03:49.316Z,0
2023-10-28T00:08:55.408Z,0
2023-10-28T00:14:01.500Z,0
2023-10-28T00:19:07.581Z,0
2023-10-28T00:24:13.674Z,0
2023-10-28T00:29:19.765Z,0
2023-10-28T00:34:25.865Z,0
2023-10-28T00:39:30.972Z,0
2023-10-28T00:44:37.046Z,0
2023-10-28T00:49:43.131Z,0
2023-10-28T00:54:49.235Z,0
2023-10-28T00:59:55.326Z,0
2023-10-28T01:05:01.420Z,0
2023-10-28T01:10:07.509Z,0
2023-10-28T01:15:13.596Z,0
2023-10-28T01:20:19.681Z,0
2023-10-28T01:25:25.767Z,0
2023-10-28T01:30:31.867Z,0
2023-10-28T01:35:37.967Z,0
2023-10-28T01:40:44.039Z,0
2023-10-28T01:45:49.148Z,0
2023-10-28T01:50:55.240Z,0
2023-10-28T01:56:01.321Z,0
2023-10-28T02:01:07.425Z,0
2023-10-28T02:06:13.506Z,0
2023-10-28T02:11:19.611Z,0
2023-10-28T02:16:25.678Z,0
2023-10-28T02:21:31.767Z,0
2023-10-28T02:26:37.865Z,0
2023-10-28T02:31:43.976Z,0
2023-10-28T02:36:50.044Z,0
2023-10-28T02:41:56.124Z,0
2023-10-28T02:47:02.215Z,0
2023-10-28T02:52:07.325Z,0
2023-10-28T02:57:13.429Z,0
2023-10-28T03:02:19.501Z,0
2023-10-28T03:07:25.588Z,0
2023-10-28T03:12:31.681Z,0
2023-10-28T03:17:37.778Z,0
2023-10-28T03:22:43.861Z,0
2023-10-28T03:27:49.951Z,0
2023-10-28T03:32:56.059Z,0
2023-10-28T03:43:08.242Z,0
2023-10-28T03:48:14.312Z,0
2023-10-28T03:53:20.412Z,0
2023-10-28T03:58:25.514Z,0
2023-10-28T04:03:31.601Z,0
2023-10-28T04:08:37.689Z,0
2023-10-28T04:13:43.776Z,0
2023-10-28T04:18:49.864Z,0
2023-10-28T04:23:55.960Z,0
2023-10-28T04:29:02.055Z,0
2023-10-28T04:34:08.183Z,0
2023-10-28T04:39:14.231Z,0
2023-10-28T04:44:20.326Z,0
2023-10-28T04:49:26.403Z,0
2023-10-28T04:54:32.496Z,0
2023-10-28T04:59:38.593Z,0
2023-10-28T05:04:43.685Z,0
2023-10-28T05:09:49.777Z,0
2023-10-28T05:14:55.865Z,0
2023-10-28T05:20:01.960Z,0
2023-10-28T05:25:08.034Z,0
2023-10-28T05:30:14.137Z,0
2023-10-28T05:35:20.234Z,0
2023-10-28T05:40:26.312Z,0
2023-10-28T05:45:32.413Z,0
2023-10-28T05:50:38.507Z,0
2023-10-28T05:55:44.641Z,0
2023-10-28T06:00:50.685Z,4
2023-10-28T06:05:56.759Z,4
2023-10-28T06:11:01.871Z,4
2023-10-28T06:16:07.959Z,8
2023-10-28T06:21:14.067Z,8
2023-10-28T06:26:20.138Z,8
2023-10-28T06:31:26.237Z,8
2023-10-28T06:36:32.328Z,8
2023-10-28T06:41:38.410Z,16
2023-10-28T06:46:44.493Z,24
2023-10-28T06:51:50.586Z,12
2023-10-28T06:56:56.672Z,12
2023-10-28T07:02:02.768Z,12
2023-10-28T07:07:08.858Z,12
2023-10-28T07:12:14.944Z,12
2023-10-28T07:17:20.063Z,16
2023-10-28T07:22:26.146Z,24
2023-10-28T07:27:32.230Z,36
2023-10-28T07:32:38.321Z,36
2023-10-28T07:37:44.418Z,36
2023-10-28T07:42:50.504Z,36
2023-10-28T07:47:56.594Z,48
2023-10-28T07:53:02.685Z,40
2023-10-28T07:58:08.776Z,44
2023-10-28T08:03:14.868Z,52
2023-10-28T08:08:20.954Z,64
2023-10-28T08:13:27.042Z,48
2023-10-28T08:18:33.133Z,64
2023-10-28T08:23:38.239Z,68
2023-10-28T08:28:44.328Z,60
2023-10-28T08:33:50.415Z,44
2023-10-28T08:38:56.503Z,48
2023-10-28T08:44:02.585Z,48
2023-10-28T08:49:08.685Z,64
2023-10-28T08:54:14.774Z,72
2023-10-28T08:59:20.862Z,76
2023-10-28T09:04:26.933Z,124
2023-10-28T09:09:33.044Z,128
2023-10-28T09:14:39.130Z,100
2023-10-28T09:19:45.212Z,60
2023-10-28T09:24:51.309Z,60
2023-10-28T09:29:56.418Z,56
2023-10-28T09:35:02.499Z,64
2023-10-28T09:40:08.596Z,64
2023-10-28T09:45:14.690Z,64
2023-10-28T09:50:20.767Z,44
2023-10-28T09:55:26.867Z,132
2023-10-28T10:00:32.951Z,104
2023-10-28T10:05:39.045Z,116
2023-10-28T10:10:45.125Z,104
2023-10-28T10:15:51.228Z,144
2023-10-28T10:20:57.316Z,200
2023-10-28T10:26:03.433Z,120
2023-10-28T10:31:09.492Z,88
2023-10-28T10:36:14.591Z,112
2023-10-28T10:41:20.683Z,116
2023-10-28T10:46:26.768Z,100
2023-10-28T10:51:32.862Z,120
2023-10-28T10:56:38.963Z,108
2023-10-28T11:01:45.056Z,76
2023-10-28T11:06:51.138Z,88
2023-10-28T11:11:57.221Z,60
2023-10-28T11:17:03.316Z,56
2023-10-28T11:22:09.419Z,60
2023-10-28T11:27:15.492Z,64
2023-10-28T11:32:21.577Z,84
2023-10-28T11:37:27.671Z,88
2023-10-28T11:42:32.782Z,80
2023-10-28T11:47:38.871Z,128
2023-10-28T11:52:44.954Z,80
2023-10-28T11:57:51.059Z,64
2023-10-28T12:02:57.152Z,64
2023-10-28T12:08:03.243Z,60
2023-10-28T12:13:09.314Z,52
2023-10-28T12:18:15.421Z,64
2023-10-28T12:23:21.489Z,88
2023-10-28T12:28:27.600Z,112
2023-10-28T12:33:33.684Z,80
2023-10-28T12:38:39.763Z,80
2023-10-28T12:43:45.843Z,72
2023-10-28T12:48:50.961Z,44
2023-10-28T12:53:57.057Z,84
2023-10-28T12:59:03.208Z,100
2023-10-28T13:04:09.229Z,88
2023-10-28T13:09:15.319Z,148
2023-10-28T13:14:21.414Z,144
2023-10-28T13:19:26.519Z,132
2023-10-28T13:24:32.607Z,156
2023-10-28T13:29:38.731Z,108
2023-10-28T13:34:44.787Z,104
2023-10-28T13:39:50.882Z,112
2023-10-28T13:44:56.965Z,96
2023-10-28T13:50:03.058Z,80
2023-10-28T13:55:09.149Z,52
2023-10-28T14:00:15.232Z,52
2023-10-28T14:05:21.309Z,44
2023-10-28T14:10:27.419Z,36
2023-10-28T14:15:33.498Z,32
2023-10-28T14:20:39.599Z,28
2023-10-28T14:25:44.696Z,36
2023-10-28T14:30:50.789Z,40
2023-10-28T14:35:56.877Z,32
2023-10-28T14:41:02.965Z,36
2023-10-28T14:46:09.054Z,44
2023-10-28T14:51:15.140Z,32
2023-10-28T14:56:21.235Z,20
2023-10-28T15:01:27.327Z,12
2023-10-28T15:06:33.410Z,8
2023-10-28T15:11:39.514Z,8
2023-10-28T15:16:45.590Z,8
2023-10-28T15:21:51.686Z,8
2023-10-28T15:26:57.779Z,8
2023-10-28T15:32:02.919Z,4
2023-10-28T15:37:08.964Z,8
2023-10-28T15:42:15.066Z,4
2023-10-28T15:47:21.148Z,4
2023-10-28T15:52:27.241Z,0
2023-10-28T15:57:33.334Z,0
2023-10-28T16:02:39.425Z,0
2023-10-28T16:07:45.547Z,0
2023-10-28T16:12:51.597Z,0
2023-10-28T16:17:57.693Z,0
2023-10-28T16:23:03.779Z,0
2023-10-28T16:28:09.859Z,0
2023-10-28T16:33:15.950Z,0
2023-10-28T16:38:21.069Z,0
2023-10-28T16:43:27.178Z,0
2023-10-28T16:48:33.238Z,0
2023-10-28T16:53:39.325Z,0
2023-10-28T16:58:45.420Z,0
2023-10-28T17:03:51.503Z,0
2023-10-28T17:08:57.600Z,0
2023-10-28T17:14:03.702Z,0
2023-10-28T17:19:09.785Z,0
2023-10-28T17:24:15.872Z,0
2023-10-28T17:29:21.956Z,0
2023-10-28T17:34:28.051Z,0
2023-10-28T17:39:34.150Z,0
2023-10-28T17:44:39.232Z,0
2023-10-28T17:49:45.334Z,0
2023-10-28T17:54:51.416Z,0
2023-10-28T17:59:57.504Z,0
2023-10-28T18:05:03.601Z,0
2023-10-28T18:10:09.691Z,0
2023-10-28T18:15:15.780Z,0
2023-10-28T18:20:21.874Z,0
2023-10-28T18:25:27.974Z,0
2023-10-28T18:30:34.059Z,0
2023-10-28T18:35:40.144Z,0
2023-10-28T18:40:46.225Z,0
2023-10-28T18:45:52.316Z,0
2023-10-28T18:50:57.421Z,0
2023-10-28T18:56:03.551Z,0
2023-10-28T19:01:09.618Z,0
2023-10-28T19:06:15.699Z,0
2023-10-28T19:11:21.804Z,0
2023-10-28T19:16:27.872Z,0
2023-10-28T19:21:34.029Z,0
2023-10-28T19:26:40.051Z,0
2023-10-28T19:31:46.396Z,0
2023-10-28T19:36:52.227Z,0
2023-10-28T19:41:58.308Z,0
2023-10-28T19:47:04.442Z,0
2023-10-28T19:52:10.505Z,0
2023-10-28T19:57:15.609Z,0
2023-10-28T20:02:21.694Z,0
2023-10-28T20:07:27.786Z,0
2023-10-28T20:12:33.880Z,0
2023-10-28T20:17:39.961Z,0
2023-10-28T20:22:46.051Z,0
2023-10-28T20:27:52.154Z,0
2023-10-28T20:32:58.234Z,0
2023-10-28T20:38:04.324Z,0
2023-10-28T20:43:10.414Z,0
2023-10-28T20:48:16.506Z,0
2023-10-28T20:53:22.594Z,0
2023-10-28T20:58:28.729Z,0
2023-10-28T21:03:33.785Z,0
2023-10-28T21:08:39.872Z,0
2023-10-28T21:13:45.981Z,0
2023-10-28T21:18:52.061Z,0
2023-10-28T21:23:58.150Z,0
2023-10-28T21:29:04.246Z,0
2023-10-28T21:34:10.324Z,0
2023-10-28T21:39:16.430Z,0
2023-10-28T21:44:22.504Z,0
2023-10-28T21:49:28.593Z,0
2023-10-28T21:54:34.683Z,0
2023-10-28T21:59:40.788Z,0
2023-10-28T22:04:46.865Z,0
2023-10-28T22:09:52.049Z,0
2023-10-28T22:14:58.062Z,0
2023-10-28T22:20:04.159Z,0
2023-10-28T22:25:10.238Z,0
2023-10-28T22:30:16.322Z,0
2023-10-28T22:35:22.481Z,0
2023-10-28T22:40:28.514Z,0
2023-10-28T22:45:34.645Z,0
2023-10-28T22:50:40.677Z,0
2023-10-28T22:55:46.774Z,0
2023-10-28T23:00:52.863Z,0
2023-10-28T23:05:58.952Z,0
2023-10-28T23:11:05.047Z,0
2023-10-28T23:16:10.148Z,0
2023-10-28T23:21:16.243Z,0
2023-10-28T23:26:22.327Z,0
2023-10-28T23:31:28.418Z,0
2023-10-28T23:36:34.522Z,0
2023-10-28T23:41:40.598Z,0
2023-10-28T23:46:46.680Z,0
2023-10-28T23:51:52.777Z,0
2023-10-28T23:56:58.866Z,0
